Time;durP1;ratioP1;P1;durP2;ratioP2;P2;SDS_P1;SDS_P2;PMS_P1;PMS_P2;Temp;Humidity;BMP_temperature;BMP_pressure;BME280_temperature;BME280_humidity;BME280_pressure;Samples;Min_cycle;Max_cycle;Signal;HPM_P1;HPM_P2
2021/12/14 00:00:34;;;;;;;75.03;31.17;;;;;;;;;;5051171;28;20180;-84
2021/12/14 00:03:09;;;;;;;76.07;29.57;;;;;;;;;;5033519;28;20270;-83
2021/12/14 00:05:37;;;;;;;77.50;31.10;;;;;;;;;;5051100;28;20196;-83
2021/12/14 00:08:06;;;;;;;73.70;31.03;;;;;;;;;;5052152;28;20216;-83
2021/12/14 00:13:17;;;;;;;115.03;40.60;;;;;;;;;;5051246;28;20184;-84
2021/12/14 00:15:45;;;;;;;87.00;35.03;;;;;;;;;;5067631;28;20570;-84
2021/12/14 00:18:13;;;;;;;109.00;40.47;;;;;;;;;;5070789;28;20249;-83
2021/12/14 00:20:46;;;;;;;97.87;43.70;;;;;;;;;;5054877;28;20192;-85
2021/12/14 00:25:52;;;;;;;72.83;31.87;;;;;;;;;;5038178;28;20224;-82
2021/12/14 00:28:27;;;;;;;80.33;32.23;;;;;;;;;;5054606;28;20267;-85
2021/12/14 00:30:56;;;;;;;73.67;30.73;;;;;;;;;;5054750;28;20172;-83
2021/12/14 00:33:30;;;;;;;65.17;26.27;;;;;;;;;;5054800;28;20207;-83
2021/12/14 00:35:59;;;;;;;64.33;28.23;;;;;;;;;;5054952;28;20215;-83
2021/12/14 00:38:27;;;;;;;58.10;24.80;;;;;;;;;;5038463;28;20192;-83
2021/12/14 00:41:05;;;;;;;56.93;27.30;;;;;;;;;;5038173;28;20196;-84
2021/12/14 00:43:32;;;;;;;66.03;27.57;;;;;;;;;;5054477;28;20978;-83
2021/12/14 00:46:00;;;;;;;61.83;26.63;;;;;;;;;;5055543;28;20226;-85
2021/12/14 00:48:27;;;;;;;64.30;27.47;;;;;;;;;;5055315;28;20270;-85
2021/12/14 00:50:57;;;;;;;67.80;28.13;;;;;;;;;;5054407;28;20266;-85
2021/12/14 00:53:24;;;;;;;58.47;26.57;;;;;;;;;;5054191;28;20553;-85
2021/12/14 00:55:54;;;;;;;59.10;26.20;;;;;;;;;;5054479;28;20198;-84
2021/12/14 00:58:23;;;;;;;59.27;26.43;;;;;;;;;;5037829;28;20200;-84
2021/12/14 01:01:07;;;;;;;60.37;26.97;;;;;;;;;;5037726;28;20250;-85
2021/12/14 01:03:36;;;;;;;58.43;27.03;;;;;;;;;;5021762;28;20730;-86
2021/12/14 01:06:09;;;;;;;67.97;27.23;;;;;;;;;;5054105;28;20646;-84
2021/12/14 01:08:40;;;;;;;66.03;28.20;;;;;;;;;;5038385;28;20670;-83
2021/12/14 01:11:14;;;;;;;58.90;26.43;;;;;;;;;;5053861;28;20239;-84
2021/12/14 01:13:53;;;;;;;69.03;27.13;;;;;;;;;;5037854;28;20596;-84
2021/12/14 01:22:16;;;;;;;64.87;26.73;;;;;;;;;;5053918;28;20176;-85
2021/12/14 01:27:25;;;;;;;84.40;27.90;;;;;;;;;;5037379;28;20210;-83
2021/12/14 01:29:54;;;;;;;68.20;25.37;;;;;;;;;;5052626;28;20175;-82
2021/12/14 01:32:27;;;;;;;73.27;30.33;;;;;;;;;;5053796;28;20200;-82
2021/12/14 01:34:55;;;;;;;77.53;29.40;;;;;;;;;;5037906;28;20188;-82
2021/12/14 01:37:27;;;;;;;71.80;28.80;;;;;;;;;;5036999;28;20222;-83
2021/12/14 01:42:28;;;;;;;80.53;31.20;;;;;;;;;;5037664;28;20180;-85
2021/12/14 01:45:01;;;;;;;67.00;24.70;;;;;;;;;;5036891;28;20573;-86
2021/12/14 01:47:41;;;;;;;67.33;26.83;;;;;;;;;;5053375;28;20208;-84
2021/12/14 01:50:17;;;;;;;41.47;16.67;;;;;;;;;;5053326;28;20176;-82
2021/12/14 01:53:09;;;;;;;70.53;28.23;;;;;;;;;;5040370;28;20192;-83
2021/12/14 01:55:39;;;;;;;76.90;29.90;;;;;;;;;;5036979;28;20198;-80
2021/12/14 01:58:08;;;;;;;71.53;29.20;;;;;;;;;;5036917;28;20277;-83
2021/12/14 02:00:57;;;;;;;63.80;25.27;;;;;;;;;;5053335;28;20250;-82
2021/12/14 02:03:32;;;;;;;70.07;28.27;;;;;;;;;;5037030;28;20180;-88
2021/12/14 02:05:59;;;;;;;69.23;27.10;;;;;;;;;;5053292;28;20176;-85
2021/12/14 02:08:32;;;;;;;72.73;28.10;;;;;;;;;;5052805;28;20216;-84
2021/12/14 02:11:04;;;;;;;77.73;31.33;;;;;;;;;;5036468;28;20713;-84
2021/12/14 02:13:39;;;;;;;77.13;31.47;;;;;;;;;;5036713;28;20215;-83
2021/12/14 02:16:13;;;;;;;78.23;31.57;;;;;;;;;;5053111;28;20184;-83
2021/12/14 02:18:58;;;;;;;64.07;24.90;;;;;;;;;;5037908;28;20594;-81
2021/12/14 02:21:27;;;;;;;64.53;27.50;;;;;;;;;;5052920;28;20183;-82
2021/12/14 02:23:55;;;;;;;59.33;22.53;;;;;;;;;;5052932;28;20275;-82
2021/12/14 02:26:29;;;;;;;62.90;24.27;;;;;;;;;;5036049;28;20192;-82
2021/12/14 02:28:59;;;;;;;62.37;24.00;;;;;;;;;;5036420;28;20203;-83
2021/12/14 02:31:27;;;;;;;83.10;31.17;;;;;;;;;;5069008;28;20263;-83
2021/12/14 02:33:56;;;;;;;81.30;30.80;;;;;;;;;;5036232;28;20192;-84
2021/12/14 02:36:30;;;;;;;59.17;24.93;;;;;;;;;;5052551;28;20197;-84
2021/12/14 02:39:11;;;;;;;64.30;26.47;;;;;;;;;;5036144;28;20279;-84
2021/12/14 02:41:47;;;;;;;71.87;27.67;;;;;;;;;;5052928;28;20180;-85
2021/12/14 02:44:17;;;;;;;58.77;21.60;;;;;;;;;;5052469;28;20176;-85
2021/12/14 02:46:55;;;;;;;54.70;20.43;;;;;;;;;;5085275;28;20196;-84
2021/12/14 02:49:27;;;;;;;72.77;26.93;;;;;;;;;;5052391;28;20203;-83
2021/12/14 02:52:07;;;;;;;69.50;25.03;;;;;;;;;;5035744;28;20226;-83
2021/12/14 02:54:43;;;;;;;69.37;24.57;;;;;;;;;;5036025;28;20275;-84
2021/12/14 02:57:16;;;;;;;46.80;17.63;;;;;;;;;;5036167;28;20180;-83
2021/12/14 02:59:45;;;;;;;57.27;20.67;;;;;;;;;;5052277;28;20271;-81
2021/12/14 03:02:21;;;;;;;66.93;25.00;;;;;;;;;;5051826;28;20662;-75
2021/12/14 03:04:52;;;;;;;49.63;19.07;;;;;;;;;;5035828;28;20208;-82
2021/12/14 03:07:24;;;;;;;77.83;28.80;;;;;;;;;;5052287;28;20569;-83
2021/12/14 03:12:40;;;;;;;53.97;18.93;;;;;;;;;;5051469;28;20600;-82
2021/12/14 03:15:12;;;;;;;70.87;25.60;;;;;;;;;;5051423;28;20204;-83
2021/12/14 03:17:43;;;;;;;79.87;26.93;;;;;;;;;;5035593;28;20272;-82
2021/12/14 03:20:15;;;;;;;48.83;16.60;;;;;;;;;;5035561;28;20193;-83
2021/12/14 03:23:01;;;;;;;68.60;23.30;;;;;;;;;;5051402;28;20180;-80
2021/12/14 03:25:32;;;;;;;75.77;25.70;;;;;;;;;;5035382;28;20238;-84
2021/12/14 03:28:00;;;;;;;58.40;19.20;;;;;;;;;;5051601;28;20223;-84
2021/12/14 03:30:43;;;;;;;38.80;14.73;;;;;;;;;;5035185;28;20196;-84
2021/12/14 03:33:18;;;;;;;70.67;20.63;;;;;;;;;;5068446;28;20181;-84
2021/12/14 03:35:56;;;;;;;73.20;27.13;;;;;;;;;;5051648;28;20180;-83
2021/12/14 03:38:31;;;;;;;73.93;24.83;;;;;;;;;;5051872;28;20181;-85
2021/12/14 03:41:10;;;;;;;93.70;32.07;;;;;;;;;;5035559;28;20184;-81
2021/12/14 03:43:41;;;;;;;75.60;24.30;;;;;;;;;;5051704;28;20184;-87
2021/12/14 03:46:11;;;;;;;57.13;19.87;;;;;;;;;;5035728;28;20199;-88
2021/12/14 03:48:40;;;;;;;60.87;19.90;;;;;;;;;;5051525;28;20212;-87
2021/12/14 03:51:08;;;;;;;51.20;16.80;;;;;;;;;;5035103;28;20743;-85
2021/12/14 03:53:37;;;;;;;23.47;9.03;;;;;;;;;;5038956;28;20249;-84
2021/12/14 03:56:06;;;;;;;61.27;21.47;;;;;;;;;;5072301;28;20585;-84
2021/12/14 03:58:38;;;;;;;79.30;27.03;;;;;;;;;;5038867;28;20202;-83
2021/12/14 04:01:11;;;;;;;80.27;25.93;;;;;;;;;;5071806;28;20218;-84
2021/12/14 04:03:48;;;;;;;78.27;26.87;;;;;;;;;;5040036;28;20176;-81
2021/12/14 04:06:21;;;;;;;79.13;26.97;;;;;;;;;;5055506;28;20183;-83
2021/12/14 04:08:51;;;;;;;83.20;27.30;;;;;;;;;;5038473;28;20243;-82
2021/12/14 04:11:19;;;;;;;76.83;24.87;;;;;;;;;;5071498;28;20238;-84
2021/12/14 04:13:49;;;;;;;84.27;27.10;;;;;;;;;;5055049;28;20662;-86
2021/12/14 04:16:27;;;;;;;74.63;24.20;;;;;;;;;;5071787;28;20184;-87
2021/12/14 04:19:02;;;;;;;83.17;26.90;;;;;;;;;;5054780;28;20196;-86
2021/12/14 04:21:34;;;;;;;94.27;28.63;;;;;;;;;;5039718;28;20192;-84
2021/12/14 04:24:02;;;;;;;96.47;30.27;;;;;;;;;;5054830;28;20546;-85
2021/12/14 04:26:29;;;;;;;91.87;26.93;;;;;;;;;;5055318;28;20203;-84
2021/12/14 04:28:59;;;;;;;87.50;28.67;;;;;;;;;;5088234;28;20212;-84
2021/12/14 04:31:34;;;;;;;88.97;27.70;;;;;;;;;;5040271;28;20176;-84
2021/12/14 04:34:04;;;;;;;99.90;29.10;;;;;;;;;;5038968;28;20187;-80
2021/12/14 04:36:32;;;;;;;82.30;24.37;;;;;;;;;;5055754;28;20223;-81
2021/12/14 04:39:32;;;;;;;85.73;28.07;;;;;;;;;;5038226;28;20204;-82
2021/12/14 04:53:12;;;;;;;83.87;26.57;;;;;;;;;;5056508;28;20678;-82
2021/12/14 04:55:45;;;;;;;96.77;28.00;;;;;;;;;;5038475;28;20199;-83
2021/12/14 04:58:14;;;;;;;87.37;26.20;;;;;;;;;;5054404;28;20185;-78
2021/12/14 05:00:48;;;;;;;63.03;19.90;;;;;;;;;;5031958;28;20224;-77
2021/12/14 05:03:47;;;;;;;92.27;28.77;;;;;;;;;;5036368;28;20219;-79
2021/12/14 05:06:22;;;;;;;96.93;29.87;;;;;;;;;;5067665;28;20227;-80
2021/12/14 05:11:23;;;;;;;116.17;36.87;;;;;;;;;;5052731;28;20239;-80
2021/12/14 05:14:01;;;;;;;138.20;45.33;;;;;;;;;;5068363;28;20576;-79
2021/12/14 05:16:35;;;;;;;104.57;36.00;;;;;;;;;;5052079;28;20234;-79
2021/12/14 05:19:25;;;;;;;653.80;333.93;;;;;;;;;;5039686;28;20215;-80
2021/12/14 05:21:55;;;;;;;263.10;108.03;;;;;;;;;;5037258;28;20264;-85
2021/12/14 05:24:26;;;;;;;213.70;88.77;;;;;;;;;;5027259;28;20216;-84
2021/12/14 05:27:03;;;;;;;173.50;63.63;;;;;;;;;;5048368;28;20231;-88
2021/12/14 05:29:40;;;;;;;424.90;204.70;;;;;;;;;;5049378;28;20232;-84
2021/12/14 05:32:10;;;;;;;209.90;99.50;;;;;;;;;;5049260;28;20239;-86
2021/12/14 05:34:42;;;;;;;105.00;38.67;;;;;;;;;;5033004;28;20228;-81
2021/12/14 05:37:12;;;;;;;103.27;34.83;;;;;;;;;;5033037;28;20233;-83
2021/12/14 05:39:53;;;;;;;119.13;42.17;;;;;;;;;;5044849;28;20227;-85
2021/12/14 05:45:15;;;;;;;126.23;38.90;;;;;;;;;;5039283;28;20275;-77
2021/12/14 05:47:46;;;;;;;97.20;33.60;;;;;;;;;;5052766;28;20243;-82
2021/12/14 05:50:41;;;;;;;100.93;34.27;;;;;;;;;;5052767;28;20231;-83
2021/12/14 05:53:19;;;;;;;116.63;36.83;;;;;;;;;;5053090;28;20640;-86
2021/12/14 05:55:48;;;;;;;105.43;34.53;;;;;;;;;;5052883;28;20577;-87
2021/12/14 05:58:20;;;;;;;105.87;37.07;;;;;;;;;;5052234;28;20232;-87
2021/12/14 06:01:07;;;;;;;111.77;34.70;;;;;;;;;;5051738;28;20224;-86
2021/12/14 06:03:41;;;;;;;102.17;32.60;;;;;;;;;;5036458;28;20231;-86
2021/12/14 06:06:18;;;;;;;98.80;31.67;;;;;;;;;;5052332;28;20220;-86
2021/12/14 06:08:46;;;;;;;99.57;31.50;;;;;;;;;;5052009;28;20724;-84
2021/12/14 06:11:25;;;;;;;79.80;26.20;;;;;;;;;;5051763;28;20239;-83
2021/12/14 06:13:55;;;;;;;78.17;22.20;;;;;;;;;;5051818;28;20863;-85
2021/12/14 06:16:34;;;;;;;80.63;26.47;;;;;;;;;;5040225;28;20711;-85
2021/12/14 06:19:15;;;;;;;121.10;42.13;;;;;;;;;;5052065;28;20573;-85
2021/12/14 06:21:57;;;;;;;169.20;47.73;;;;;;;;;;5047600;28;20227;-84
2021/12/14 06:24:28;;;;;;;88.07;28.87;;;;;;;;;;5042532;28;20222;-85
2021/12/14 06:27:00;;;;;;;91.43;28.67;;;;;;;;;;5058345;28;20705;-86
2021/12/14 06:29:42;;;;;;;87.83;28.47;;;;;;;;;;5035355;28;20270;-85
2021/12/14 06:32:13;;;;;;;96.27;30.37;;;;;;;;;;5049239;28;20232;-84
2021/12/14 06:34:47;;;;;;;113.57;32.40;;;;;;;;;;5044450;28;20311;-84
2021/12/14 06:40:12;;;;;;;95.30;30.67;;;;;;;;;;5042440;28;20247;-83
2021/12/14 06:42:44;;;;;;;96.23;30.23;;;;;;;;;;5043123;28;20223;-83
2021/12/14 06:45:19;;;;;;;107.33;34.27;;;;;;;;;;5034344;28;20239;-86
2021/12/14 06:47:51;;;;;;;99.13;31.10;;;;;;;;;;5038912;28;20714;-84
2021/12/14 06:50:25;;;;;;;94.47;31.77;;;;;;;;;;5032912;28;20237;-85
2021/12/14 06:53:04;;;;;;;94.67;31.97;;;;;;;;;;5040761;28;20224;-84
2021/12/14 06:55:58;;;;;;;95.60;32.00;;;;;;;;;;5036924;28;20219;-85
2021/12/14 06:58:50;;;;;;;102.90;32.23;;;;;;;;;;5064465;28;20224;-83
2021/12/14 07:01:43;;;;;;;129.70;40.23;;;;;;;;;;5034377;28;20223;-83
2021/12/14 07:04:30;;;;;;;131.33;39.07;;;;;;;;;;5050186;28;20223;-84
2021/12/14 07:07:09;;;;;;;139.10;48.67;;;;;;;;;;5065750;28;20273;-85
2021/12/14 07:09:55;;;;;;;107.57;35.73;;;;;;;;;;5030490;28;20211;-80
2021/12/14 07:12:33;;;;;;;93.97;32.13;;;;;;;;;;5061752;28;20238;-78
2021/12/14 07:15:15;;;;;;;177.07;61.87;;;;;;;;;;5035324;28;20259;-77
2021/12/14 07:17:50;;;;;;;154.13;51.53;;;;;;;;;;5053340;28;20191;-75
2021/12/14 07:20:26;;;;;;;185.27;57.60;;;;;;;;;;5035584;28;20180;-77
2021/12/14 07:23:02;;;;;;;112.90;41.13;;;;;;;;;;5035674;28;20684;-76
2021/12/14 07:25:32;;;;;;;137.57;47.20;;;;;;;;;;5053193;28;20179;-78
2021/12/14 07:28:06;;;;;;;144.67;48.77;;;;;;;;;;5068506;28;20184;-78
2021/12/14 07:30:48;;;;;;;126.47;48.77;;;;;;;;;;5068331;28;20633;-78
2021/12/14 07:33:18;;;;;;;128.70;49.70;;;;;;;;;;5035645;28;20180;-77
2021/12/14 07:36:00;;;;;;;119.47;42.13;;;;;;;;;;5068630;28;20622;-78
2021/12/14 07:38:47;;;;;;;85.23;30.50;;;;;;;;;;5051822;28;20183;-76
2021/12/14 07:41:32;;;;;;;90.07;34.57;;;;;;;;;;5035102;28;20180;-77
2021/12/14 07:44:23;;;;;;;134.80;51.40;;;;;;;;;;5035147;28;20180;-77
2021/12/14 07:47:03;;;;;;;111.10;35.83;;;;;;;;;;5036163;28;20200;-79
2021/12/14 07:49:46;;;;;;;119.07;37.37;;;;;;;;;;5051915;28;20195;-80
2021/12/14 07:52:19;;;;;;;87.33;30.57;;;;;;;;;;5035063;28;20184;-77
2021/12/14 07:55:03;;;;;;;86.23;31.30;;;;;;;;;;5068449;28;20172;-79
2021/12/14 07:57:34;;;;;;;93.77;31.47;;;;;;;;;;5053118;28;20184;-79
2021/12/14 08:00:16;;;;;;;94.90;34.43;;;;;;;;;;5068148;28;20181;-78
2021/12/14 08:02:46;;;;;;;178.63;49.70;;;;;;;;;;5068077;28;20191;-80
2021/12/14 08:05:19;;;;;;;156.63;55.43;;;;;;;;;;5051624;28;20180;-78
2021/12/14 08:08:07;;;;;;;211.73;55.73;;;;;;;;;;5035261;28;20180;-79
2021/12/14 08:10:40;;;;;;;133.90;42.33;;;;;;;;;;5035792;28;20196;-79
2021/12/14 08:13:20;;;;;;;130.27;46.20;;;;;;;;;;5068235;28;20222;-79
2021/12/14 08:15:52;;;;;;;144.70;50.73;;;;;;;;;;5035465;28;20183;-76
2021/12/14 08:18:23;;;;;;;105.30;38.13;;;;;;;;;;5067838;28;20184;-78
2021/12/14 08:21:05;;;;;;;152.03;47.60;;;;;;;;;;5051504;28;20306;-77
2021/12/14 08:23:39;;;;;;;195.33;51.10;;;;;;;;;;5035071;28;20185;-76
2021/12/14 08:26:11;;;;;;;106.47;41.70;;;;;;;;;;5052562;28;20173;-77
2021/12/14 08:29:06;;;;;;;154.53;52.93;;;;;;;;;;5051165;28;20177;-77
2021/12/14 08:31:47;;;;;;;118.33;39.17;;;;;;;;;;5050898;28;20196;-76
2021/12/14 08:34:28;;;;;;;132.10;46.77;;;;;;;;;;5035363;28;20176;-76
2021/12/14 08:37:08;;;;;;;120.07;41.63;;;;;;;;;;5034997;28;20177;-75
2021/12/14 08:39:54;;;;;;;122.33;41.83;;;;;;;;;;5054786;28;20184;-76
2021/12/14 08:42:36;;;;;;;102.93;36.77;;;;;;;;;;5054962;28;20181;-77
2021/12/14 08:45:46;;;;;;;109.57;37.20;;;;;;;;;;5021234;28;20193;-77
2021/12/14 08:48:19;;;;;;;128.13;44.77;;;;;;;;;;5046831;28;20196;-76
2021/12/14 08:51:13;;;;;;;149.63;45.90;;;;;;;;;;5047607;28;20236;-78
2021/12/14 08:53:58;;;;;;;103.63;36.37;;;;;;;;;;5061176;28;20566;-76
2021/12/14 08:56:35;;;;;;;93.17;31.90;;;;;;;;;;5053141;28;20228;-77
2021/12/14 08:59:07;;;;;;;93.33;35.33;;;;;;;;;;5054309;28;20226;-76
2021/12/14 09:01:40;;;;;;;91.40;34.23;;;;;;;;;;5053571;28;20226;-77
2021/12/14 09:04:32;;;;;;;81.30;31.60;;;;;;;;;;5069574;28;20274;-77
2021/12/14 09:07:15;;;;;;;127.77;39.00;;;;;;;;;;5069916;28;20268;-78
2021/12/14 09:09:45;;;;;;;89.90;32.20;;;;;;;;;;5037018;28;20234;-76
2021/12/14 09:12:24;;;;;;;135.27;39.80;;;;;;;;;;5051390;28;20310;-78
2021/12/14 09:14:57;;;;;;;87.63;32.63;;;;;;;;;;5053844;28;20219;-80
2021/12/14 09:17:27;;;;;;;67.47;28.17;;;;;;;;;;5053776;28;20192;-75
2021/12/14 09:20:03;;;;;;;75.93;28.60;;;;;;;;;;5053468;28;20204;-81
2021/12/14 09:22:41;;;;;;;78.57;28.77;;;;;;;;;;5053769;28;20180;-78
2021/12/14 09:25:18;;;;;;;81.00;29.37;;;;;;;;;;5070570;28;20184;-79
2021/12/14 09:27:46;;;;;;;134.43;36.67;;;;;;;;;;5070350;28;20264;-77
2021/12/14 09:30:16;;;;;;;91.80;33.53;;;;;;;;;;5054989;28;20223;-80
2021/12/14 09:32:43;;;;;;;104.13;34.73;;;;;;;;;;5054576;28;20207;-76
2021/12/14 09:35:16;;;;;;;114.70;35.93;;;;;;;;;;5053753;28;20680;-79
2021/12/14 09:37:47;;;;;;;94.00;32.20;;;;;;;;;;5069693;28;20660;-77
2021/12/14 09:40:20;;;;;;;69.97;25.47;;;;;;;;;;5055032;28;20181;-80
2021/12/14 09:42:48;;;;;;;64.53;25.23;;;;;;;;;;5053291;28;20177;-79
2021/12/14 09:45:20;;;;;;;74.40;26.23;;;;;;;;;;5070151;28;20196;-81
2021/12/14 09:47:48;;;;;;;99.90;30.60;;;;;;;;;;5069885;28;20569;-81
2021/12/14 09:50:21;;;;;;;72.77;26.60;;;;;;;;;;5051584;28;20216;-75
2021/12/14 09:52:50;;;;;;;65.13;24.53;;;;;;;;;;5046406;28;20240;-81
2021/12/14 09:55:21;;;;;;;77.90;27.80;;;;;;;;;;5053001;28;20196;-82
2021/12/14 09:57:53;;;;;;;71.43;25.87;;;;;;;;;;5057929;28;20751;-82
2021/12/14 10:00:31;;;;;;;63.13;24.03;;;;;;;;;;5067612;28;20188;-83
2021/12/14 10:03:03;;;;;;;67.17;24.10;;;;;;;;;;5048509;28;20229;-82
2021/12/14 10:05:34;;;;;;;66.47;24.40;;;;;;;;;;5030316;28;20678;-76
2021/12/14 10:08:14;;;;;;;64.63;24.57;;;;;;;;;;5045720;28;20749;-82
2021/12/14 10:10:57;;;;;;;61.27;25.27;;;;;;;;;;5018001;28;20207;-81
2021/12/14 10:13:27;;;;;;;63.30;23.27;;;;;;;;;;5032868;28;20255;-83
2021/12/14 10:15:57;;;;;;;68.77;24.70;;;;;;;;;;5032998;28;20646;-82
2021/12/14 10:18:41;;;;;;;118.00;36.17;;;;;;;;;;5032825;28;20213;-82
2021/12/14 10:21:16;;;;;;;106.53;35.40;;;;;;;;;;5031694;28;20191;-82
2021/12/14 10:23:47;;;;;;;93.37;32.43;;;;;;;;;;5032960;28;20247;-82
2021/12/14 10:26:21;;;;;;;81.73;28.30;;;;;;;;;;5032604;28;20235;-81
2021/12/14 10:28:53;;;;;;;86.33;30.97;;;;;;;;;;5032692;28;20251;-83
2021/12/14 10:31:39;;;;;;;125.17;40.03;;;;;;;;;;5032161;28;20625;-82
2021/12/14 10:34:14;;;;;;;88.17;33.40;;;;;;;;;;5020547;28;20643;-83
2021/12/14 10:36:59;;;;;;;102.97;34.03;;;;;;;;;;5054840;28;20235;-83
2021/12/14 10:44:53;;;;;;;84.97;30.47;;;;;;;;;;5052734;28;20223;-83
2021/12/14 10:47:24;;;;;;;79.40;31.57;;;;;;;;;;5068319;28;20212;-82
2021/12/14 10:49:52;;;;;;;89.33;31.03;;;;;;;;;;5068502;28;20235;-82
2021/12/14 10:52:26;;;;;;;90.87;32.60;;;;;;;;;;5050652;28;20208;-80
2021/12/14 10:54:58;;;;;;;103.53;45.73;;;;;;;;;;5059866;28;20542;-79
2021/12/14 10:57:29;;;;;;;91.00;33.80;;;;;;;;;;5042700;28;20217;-79
2021/12/14 11:00:36;;;;;;;97.40;33.73;;;;;;;;;;5055819;28;20183;-81
2021/12/14 11:03:10;;;;;;;77.30;31.13;;;;;;;;;;5052000;28;20208;-82
2021/12/14 11:05:39;;;;;;;80.77;30.60;;;;;;;;;;5067174;28;20188;-80
2021/12/14 11:08:20;;;;;;;74.37;29.77;;;;;;;;;;5034383;28;20576;-79
2021/12/14 11:10:53;;;;;;;66.17;26.93;;;;;;;;;;5031344;28;20224;-82
2021/12/14 11:13:22;;;;;;;85.50;30.63;;;;;;;;;;5048242;28;20227;-83
2021/12/14 11:15:55;;;;;;;77.50;35.23;;;;;;;;;;5048248;28;20181;-83
2021/12/14 11:18:26;;;;;;;115.90;37.67;;;;;;;;;;5056733;28;20258;-80
2021/12/14 11:21:02;;;;;;;71.40;29.83;;;;;;;;;;5050779;28;20329;-82
2021/12/14 11:23:34;;;;;;;62.07;26.30;;;;;;;;;;5067941;28;20264;-82
2021/12/14 11:26:06;;;;;;;66.87;25.63;;;;;;;;;;5035123;28;20184;-82
2021/12/14 11:28:39;;;;;;;60.70;25.60;;;;;;;;;;5058450;28;20295;-79
2021/12/14 11:31:24;;;;;;;70.60;26.73;;;;;;;;;;5050867;28;20218;-81
2021/12/14 11:34:39;;;;;;;74.37;27.63;;;;;;;;;;5051166;28;20219;-82
2021/12/14 11:37:14;;;;;;;75.43;32.57;;;;;;;;;;5046660;28;20215;-81
2021/12/14 11:39:51;;;;;;;91.07;31.60;;;;;;;;;;5041842;28;20237;-82
2021/12/14 11:42:22;;;;;;;83.77;30.00;;;;;;;;;;5025842;28;20236;-83
2021/12/14 11:44:55;;;;;;;101.07;34.93;;;;;;;;;;5062922;28;20196;-82
2021/12/14 11:50:18;;;;;;;97.80;35.77;;;;;;;;;;5043385;28;20208;-82
2021/12/14 11:53:00;;;;;;;145.13;41.37;;;;;;;;;;5064384;28;20215;-82
2021/12/14 11:55:28;;;;;;;139.97;40.80;;;;;;;;;;5052625;28;20259;-83
2021/12/14 11:58:17;;;;;;;87.10;31.90;;;;;;;;;;5067688;28;20269;-82
2021/12/14 12:00:55;;;;;;;96.10;34.83;;;;;;;;;;5050426;28;20203;-81
2021/12/14 12:03:48;;;;;;;90.47;33.67;;;;;;;;;;5061732;28;20207;-82
2021/12/14 12:06:44;;;;;;;88.00;34.47;;;;;;;;;;5040302;28;20268;-82
2021/12/14 12:09:32;;;;;;;96.63;35.27;;;;;;;;;;5066589;28;20177;-83
2021/12/14 12:12:06;;;;;;;92.57;35.60;;;;;;;;;;5042375;28;20231;-82
2021/12/14 12:15:01;;;;;;;99.57;35.13;;;;;;;;;;5061706;28;20646;-81
2021/12/14 12:17:34;;;;;;;90.50;34.40;;;;;;;;;;5054851;28;20184;-82
2021/12/14 12:20:21;;;;;;;119.23;44.30;;;;;;;;;;5047789;28;20184;-82
2021/12/14 12:23:02;;;;;;;117.60;39.10;;;;;;;;;;5048014;28;20190;-82
2021/12/14 12:25:35;;;;;;;100.53;36.83;;;;;;;;;;5045132;28;20180;-81
2021/12/14 12:28:27;;;;;;;92.93;35.57;;;;;;;;;;5064407;28;20183;-81
2021/12/14 12:31:07;;;;;;;115.50;39.27;;;;;;;;;;5070657;28;20200;-81
2021/12/14 12:33:45;;;;;;;95.60;37.07;;;;;;;;;;5059414;28;20234;-82
2021/12/14 12:36:16;;;;;;;90.03;33.97;;;;;;;;;;5062735;28;20612;-80
2021/12/14 12:38:53;;;;;;;168.43;58.23;;;;;;;;;;5051146;28;20353;-81
2021/12/14 12:41:30;;;;;;;135.43;58.37;;;;;;;;;;5070029;28;20315;-81
2021/12/14 12:44:19;;;;;;;149.57;46.57;;;;;;;;;;5053780;28;20888;-82
2021/12/14 12:46:57;;;;;;;108.60;40.27;;;;;;;;;;5053542;28;20234;-81
2021/12/14 12:49:35;;;;;;;88.57;34.03;;;;;;;;;;5053341;28;20728;-82
2021/12/14 12:52:30;;;;;;;92.03;36.13;;;;;;;;;;5069814;28;20687;-80
2021/12/14 12:55:06;;;;;;;96.20;35.10;;;;;;;;;;5070481;28;20215;-79
2021/12/14 12:57:36;;;;;;;90.50;38.20;;;;;;;;;;5069810;28;20315;-81
2021/12/14 13:00:16;;;;;;;86.07;35.73;;;;;;;;;;5070274;28;20216;-78
2021/12/14 13:03:08;;;;;;;100.37;40.27;;;;;;;;;;5053745;28;20227;-81
2021/12/14 13:05:43;;;;;;;225.53;61.33;;;;;;;;;;5034108;28;20650;-80
2021/12/14 13:08:16;;;;;;;156.93;50.87;;;;;;;;;;5051182;28;20235;-82
2021/12/14 13:11:00;;;;;;;87.20;34.80;;;;;;;;;;5054170;28;20705;-80
2021/12/14 13:13:43;;;;;;;78.53;30.57;;;;;;;;;;5053238;28;20281;-80
2021/12/14 13:16:21;;;;;;;112.30;38.27;;;;;;;;;;5037699;28;20220;-81
2021/12/14 13:19:04;;;;;;;97.70;39.50;;;;;;;;;;5053159;28;20779;-80
2021/12/14 13:21:48;;;;;;;121.27;42.67;;;;;;;;;;5052915;28;20223;-80
2021/12/14 13:24:51;;;;;;;94.07;37.80;;;;;;;;;;5052760;28;20685;-79
2021/12/14 13:27:21;;;;;;;101.20;38.23;;;;;;;;;;5032803;28;20224;-81
2021/12/14 13:29:53;;;;;;;111.63;40.30;;;;;;;;;;5053053;28;20239;-83
2021/12/14 13:32:29;;;;;;;103.40;39.90;;;;;;;;;;5069202;28;20318;-82
2021/12/14 13:35:08;;;;;;;104.87;37.90;;;;;;;;;;5053050;28;20238;-82
2021/12/14 13:37:42;;;;;;;97.07;38.53;;;;;;;;;;5019972;28;20686;-82
2021/12/14 13:40:25;;;;;;;103.23;42.53;;;;;;;;;;5053025;28;20307;-80
2021/12/14 13:43:25;;;;;;;133.20;53.23;;;;;;;;;;5053222;28;20220;-81
2021/12/14 13:45:56;;;;;;;128.30;49.33;;;;;;;;;;5069513;28;20575;-84
2021/12/14 13:48:35;;;;;;;116.60;41.63;;;;;;;;;;5052702;28;21079;-79
2021/12/14 13:51:07;;;;;;;113.50;42.43;;;;;;;;;;5068063;28;20284;-80
2021/12/14 13:53:35;;;;;;;112.70;43.67;;;;;;;;;;5044981;28;20240;-81
2021/12/14 13:56:12;;;;;;;97.17;38.47;;;;;;;;;;5046492;28;20286;-82
2021/12/14 13:58:41;;;;;;;94.67;40.70;;;;;;;;;;5048352;28;20286;-81
2021/12/14 14:01:14;;;;;;;101.17;40.97;;;;;;;;;;5032635;28;20315;-78
2021/12/14 14:03:47;;;;;;;91.13;36.27;;;;;;;;;;5033632;28;20236;-78
2021/12/14 14:06:20;;;;;;;105.40;42.77;;;;;;;;;;5047863;28;20656;-81
2021/12/14 14:08:54;;;;;;;143.23;48.40;;;;;;;;;;5048963;28;20247;-81
2021/12/14 14:11:49;;;;;;;122.33;43.30;;;;;;;;;;5048715;28;20267;-79
2021/12/14 14:14:16;;;;;;;103.70;39.83;;;;;;;;;;5029834;28;20255;-80
2021/12/14 14:16:49;;;;;;;99.17;39.53;;;;;;;;;;5032802;28;20217;-80
2021/12/14 14:19:20;;;;;;;102.23;41.73;;;;;;;;;;5048312;28;20702;-78
2021/12/14 14:21:57;;;;;;;114.20;49.77;;;;;;;;;;5048632;28;20576;-79
2021/12/14 14:24:31;;;;;;;145.03;48.97;;;;;;;;;;5032552;28;20224;-79
2021/12/14 14:27:00;;;;;;;100.07;39.97;;;;;;;;;;5049003;28;20622;-81
2021/12/14 14:29:41;;;;;;;155.30;50.23;;;;;;;;;;5033891;28;20242;-81
2021/12/14 14:34:54;;;;;;;168.70;64.77;;;;;;;;;;5046894;28;20232;-80
2021/12/14 14:37:44;;;;;;;159.97;71.83;;;;;;;;;;5047493;28;20225;-81
2021/12/14 14:40:17;;;;;;;143.13;68.63;;;;;;;;;;5033689;28;20233;-83
2021/12/14 14:42:56;;;;;;;124.83;50.60;;;;;;;;;;5033047;28;20221;-81
2021/12/14 14:45:27;;;;;;;131.33;46.40;;;;;;;;;;5032204;28;20221;-80
2021/12/14 14:48:20;;;;;;;168.10;62.93;;;;;;;;;;5063455;28;20274;-77
2021/12/14 14:50:51;;;;;;;125.87;49.03;;;;;;;;;;5052328;28;20721;-80
2021/12/14 14:53:31;;;;;;;121.80;48.90;;;;;;;;;;5052993;28;20751;-79
2021/12/14 14:56:01;;;;;;;133.47;54.07;;;;;;;;;;5068193;28;20353;-76
2021/12/14 14:58:37;;;;;;;216.63;83.70;;;;;;;;;;5052485;28;20593;-78
2021/12/14 15:01:18;;;;;;;168.17;69.70;;;;;;;;;;5068305;28;20243;-77
2021/12/14 15:03:50;;;;;;;129.90;52.07;;;;;;;;;;5068068;28;20220;-76
2021/12/14 15:06:19;;;;;;;121.87;50.07;;;;;;;;;;5050912;28;20239;-81
2021/12/14 15:08:55;;;;;;;139.97;56.53;;;;;;;;;;5051265;28;20259;-80
2021/12/14 15:11:36;;;;;;;119.63;46.13;;;;;;;;;;5050543;28;20243;-80
2021/12/14 15:14:10;;;;;;;169.73;60.63;;;;;;;;;;5068031;28;20232;-78
2021/12/14 15:16:55;;;;;;;277.43;79.73;;;;;;;;;;5051362;28;20223;-77
2021/12/14 15:19:31;;;;;;;213.47;70.57;;;;;;;;;;5051812;28;20220;-77
2021/12/14 15:22:04;;;;;;;148.07;54.67;;;;;;;;;;5034982;28;20677;-78
2021/12/14 15:24:43;;;;;;;157.87;58.10;;;;;;;;;;5052544;28;20752;-76
2021/12/14 15:27:10;;;;;;;157.63;53.90;;;;;;;;;;5068051;28;20212;-77
2021/12/14 15:29:44;;;;;;;165.90;56.40;;;;;;;;;;5067677;28;20219;-76
2021/12/14 15:32:16;;;;;;;198.80;71.60;;;;;;;;;;5067912;28;20223;-77
2021/12/14 15:35:09;;;;;;;176.00;57.83;;;;;;;;;;5067825;28;20228;-78
2021/12/14 15:37:46;;;;;;;231.30;74.83;;;;;;;;;;5067831;28;20207;-77
2021/12/14 15:40:16;;;;;;;201.30;65.20;;;;;;;;;;5052300;28;20231;-80
2021/12/14 15:43:06;;;;;;;167.60;58.00;;;;;;;;;;5052501;28;20228;-77
2021/12/14 15:46:02;;;;;;;157.67;51.67;;;;;;;;;;5050996;28;20712;-77
2021/12/14 15:48:39;;;;;;;172.90;54.83;;;;;;;;;;5066563;28;20216;-77
2021/12/14 15:51:31;;;;;;;149.73;50.87;;;;;;;;;;5066843;28;20235;-80